sensor_id;sensor_type;location;lat;lon;timestamp;temperature;humidity
506;DHT22;551;48.524;9.056;2024-03-06T00:01:47;7.30;1.00
506;DHT22;551;48.524;9.056;2024-03-06T00:04:13;7.30;1.00
506;DHT22;551;48.524;9.056;2024-03-06T00:06:38;7.30;1.00
506;DHT22;551;48.524;9.056;2024-03-06T00:09:03;7.30;1.00
506;DHT22;551;48.524;9.056;2024-03-06T00:11:30;7.30;1.00
506;DHT22;551;48.524;9.056;2024-03-06T00:13:55;7.30;1.00
506;DHT22;551;48.524;9.056;2024-03-06T00:16:21;7.20;1.00
506;DHT22;551;48.524;9.056;2024-03-06T00:18:46;7.30;1.00
506;DHT22;551;48.524;9.056;2024-03-06T00:21:12;7.30;1.00
506;DHT22;551;48.524;9.056;2024-03-06T00:23:38;7.30;1.00
506;DHT22;551;48.524;9.056;2024-03-06T00:26:04;7.30;1.00
506;DHT22;551;48.524;9.056;2024-03-06T00:28:29;7.30;1.00
506;DHT22;551;48.524;9.056;2024-03-06T00:30:55;7.30;1.00
506;DHT22;551;48.524;9.056;2024-03-06T00:33:21;7.30;1.00
506;DHT22;551;48.524;9.056;2024-03-06T00:35:47;7.30;1.00
506;DHT22;551;48.524;9.056;2024-03-06T00:38:14;7.30;1.00
506;DHT22;551;48.524;9.056;2024-03-06T00:40:39;7.30;1.00
506;DHT22;551;48.524;9.056;2024-03-06T00:43:05;7.30;1.00
506;DHT22;551;48.524;9.056;2024-03-06T00:45:31;7.20;1.00
506;DHT22;551;48.524;9.056;2024-03-06T00:47:57;7.30;1.00
506;DHT22;551;48.524;9.056;2024-03-06T00:50:22;7.20;1.00
506;DHT22;551;48.524;9.056;2024-03-06T00:52:48;7.20;1.00
506;DHT22;551;48.524;9.056;2024-03-06T00:55:14;7.20;1.00
506;DHT22;551;48.524;9.056;2024-03-06T00:57:39;7.20;1.00
506;DHT22;551;48.524;9.056;2024-03-06T01:00:05;7.20;1.00
506;DHT22;551;48.524;9.056;2024-03-06T01:02:39;7.30;1.00
506;DHT22;551;48.524;9.056;2024-03-06T01:05:05;7.30;1.00
506;DHT22;551;48.524;9.056;2024-03-06T01:07:31;7.30;1.00
506;DHT22;551;48.524;9.056;2024-03-06T01:09:57;7.30;1.00
506;DHT22;551;48.524;9.056;2024-03-06T01:12:24;7.30;1.00
506;DHT22;551;48.524;9.056;2024-03-06T01:14:52;7.30;1.00
506;DHT22;551;48.524;9.056;2024-03-06T01:17:18;7.30;1.00
506;DHT22;551;48.524;9.056;2024-03-06T01:19:44;7.20;1.00
506;DHT22;551;48.524;9.056;2024-03-06T01:22:10;7.20;1.00
506;DHT22;551;48.524;9.056;2024-03-06T01:24:35;7.30;1.00
506;DHT22;551;48.524;9.056;2024-03-06T01:27:01;7.20;1.00
506;DHT22;551;48.524;9.056;2024-03-06T01:29:29;7.30;1.00
506;DHT22;551;48.524;9.056;2024-03-06T01:31:55;7.30;1.00
506;DHT22;551;48.524;9.056;2024-03-06T01:34:20;7.30;1.00
506;DHT22;551;48.524;9.056;2024-03-06T01:36:47;7.30;1.00
506;DHT22;551;48.524;9.056;2024-03-06T01:39:13;7.30;1.00
506;DHT22;551;48.524;9.056;2024-03-06T01:41:47;7.30;1.00
506;DHT22;551;48.524;9.056;2024-03-06T01:44:16;7.30;1.00
506;DHT22;551;48.524;9.056;2024-03-06T01:46:43;7.30;1.00
506;DHT22;551;48.524;9.056;2024-03-06T01:49:09;7.20;1.00
506;DHT22;551;48.524;9.056;2024-03-06T01:51:35;7.20;1.00
506;DHT22;551;48.524;9.056;2024-03-06T01:54:01;7.20;1.00
506;DHT22;551;48.524;9.056;2024-03-06T01:56:30;7.20;1.00
506;DHT22;551;48.524;9.056;2024-03-06T01:58:56;7.10;1.00
506;DHT22;551;48.524;9.056;2024-03-06T02:01:22;7.00;1.00
506;DHT22;551;48.524;9.056;2024-03-06T02:03:48;6.90;1.00
506;DHT22;551;48.524;9.056;2024-03-06T02:06:14;6.90;1.00
506;DHT22;551;48.524;9.056;2024-03-06T02:08:45;7.00;1.00
506;DHT22;551;48.524;9.056;2024-03-06T02:11:11;7.00;1.00
506;DHT22;551;48.524;9.056;2024-03-06T02:13:37;7.00;1.00
506;DHT22;551;48.524;9.056;2024-03-06T02:16:02;7.10;1.00
506;DHT22;551;48.524;9.056;2024-03-06T02:18:28;7.10;1.00
506;DHT22;551;48.524;9.056;2024-03-06T02:20:53;7.10;1.00
506;DHT22;551;48.524;9.056;2024-03-06T02:23:19;7.10;1.00
506;DHT22;551;48.524;9.056;2024-03-06T02:25:46;7.10;1.00
506;DHT22;551;48.524;9.056;2024-03-06T02:28:12;7.10;1.00
506;DHT22;551;48.524;9.056;2024-03-06T02:30:38;7.00;1.00
506;DHT22;551;48.524;9.056;2024-03-06T02:33:04;7.00;1.00
506;DHT22;551;48.524;9.056;2024-03-06T02:35:31;7.00;1.00
506;DHT22;551;48.524;9.056;2024-03-06T02:37:57;7.00;1.00
506;DHT22;551;48.524;9.056;2024-03-06T02:40:23;7.00;1.00
506;DHT22;551;48.524;9.056;2024-03-06T02:42:51;7.10;1.00
506;DHT22;551;48.524;9.056;2024-03-06T02:45:16;7.10;1.00
506;DHT22;551;48.524;9.056;2024-03-06T02:47:42;7.20;1.00
506;DHT22;551;48.524;9.056;2024-03-06T02:50:09;7.20;1.00
506;DHT22;551;48.524;9.056;2024-03-06T02:52:36;7.20;1.00
506;DHT22;551;48.524;9.056;2024-03-06T02:55:01;7.20;1.00
506;DHT22;551;48.524;9.056;2024-03-06T02:57:27;7.20;1.00
506;DHT22;551;48.524;9.056;2024-03-06T02:59:55;7.20;1.00
506;DHT22;551;48.524;9.056;2024-03-06T03:02:20;7.10;1.00
506;DHT22;551;48.524;9.056;2024-03-06T03:04:46;7.10;1.00
506;DHT22;551;48.524;9.056;2024-03-06T03:07:11;7.10;1.00
506;DHT22;551;48.524;9.056;2024-03-06T03:09:37;7.10;1.00
506;DHT22;551;48.524;9.056;2024-03-06T03:12:03;7.00;1.00
506;DHT22;551;48.524;9.056;2024-03-06T03:14:29;6.90;1.00
506;DHT22;551;48.524;9.056;2024-03-06T03:16:54;6.90;1.00
506;DHT22;551;48.524;9.056;2024-03-06T03:19:20;7.00;1.00
506;DHT22;551;48.524;9.056;2024-03-06T03:21:45;6.90;1.00
506;DHT22;551;48.524;9.056;2024-03-06T03:24:11;6.90;1.00
506;DHT22;551;48.524;9.056;2024-03-06T03:26:36;6.80;1.00
506;DHT22;551;48.524;9.056;2024-03-06T03:29:02;6.80;1.00
506;DHT22;551;48.524;9.056;2024-03-06T03:31:28;6.80;1.00
506;DHT22;551;48.524;9.056;2024-03-06T03:33:54;6.80;1.00
506;DHT22;551;48.524;9.056;2024-03-06T03:36:19;6.90;1.00
506;DHT22;551;48.524;9.056;2024-03-06T03:38:45;6.90;1.00
506;DHT22;551;48.524;9.056;2024-03-06T03:41:11;7.00;1.00
506;DHT22;551;48.524;9.056;2024-03-06T03:43:42;7.00;1.00
506;DHT22;551;48.524;9.056;2024-03-06T03:46:08;7.00;1.00
506;DHT22;551;48.524;9.056;2024-03-06T03:48:35;7.00;1.00
506;DHT22;551;48.524;9.056;2024-03-06T03:51:02;7.00;1.00
506;DHT22;551;48.524;9.056;2024-03-06T03:53:35;6.90;1.00
506;DHT22;551;48.524;9.056;2024-03-06T03:56:01;7.00;1.00
506;DHT22;551;48.524;9.056;2024-03-06T03:58:27;7.00;1.00
506;DHT22;551;48.524;9.056;2024-03-06T04:00:52;7.00;1.00
506;DHT22;551;48.524;9.056;2024-03-06T04:03:20;7.00;1.00
506;DHT22;551;48.524;9.056;2024-03-06T04:05:47;7.00;1.00
506;DHT22;551;48.524;9.056;2024-03-06T04:08:12;7.00;1.00
506;DHT22;551;48.524;9.056;2024-03-06T04:10:38;7.10;1.00
506;DHT22;551;48.524;9.056;2024-03-06T04:13:04;7.10;1.00
506;DHT22;551;48.524;9.056;2024-03-06T04:15:29;7.10;1.00
506;DHT22;551;48.524;9.056;2024-03-06T04:17:55;7.10;1.00
506;DHT22;551;48.524;9.056;2024-03-06T04:20:21;7.10;1.00
506;DHT22;551;48.524;9.056;2024-03-06T04:22:47;7.10;1.00
506;DHT22;551;48.524;9.056;2024-03-06T04:25:13;7.10;1.00
506;DHT22;551;48.524;9.056;2024-03-06T04:27:39;7.10;1.00
506;DHT22;551;48.524;9.056;2024-03-06T04:30:05;7.10;1.00
506;DHT22;551;48.524;9.056;2024-03-06T04:32:31;7.10;1.00
506;DHT22;551;48.524;9.056;2024-03-06T04:34:56;7.00;1.00
506;DHT22;551;48.524;9.056;2024-03-06T04:37:22;7.10;1.00
506;DHT22;551;48.524;9.056;2024-03-06T04:39:48;7.10;1.00
506;DHT22;551;48.524;9.056;2024-03-06T04:42:13;7.10;1.00
506;DHT22;551;48.524;9.056;2024-03-06T04:44:39;7.10;1.00
506;DHT22;551;48.524;9.056;2024-03-06T04:47:05;7.10;1.00
506;DHT22;551;48.524;9.056;2024-03-06T04:49:33;7.10;1.00
506;DHT22;551;48.524;9.056;2024-03-06T04:52:02;7.20;1.00
506;DHT22;551;48.524;9.056;2024-03-06T04:54:28;7.10;1.00
506;DHT22;551;48.524;9.056;2024-03-06T04:56:54;7.10;1.00
506;DHT22;551;48.524;9.056;2024-03-06T04:59:20;7.10;1.00
506;DHT22;551;48.524;9.056;2024-03-06T05:01:45;7.20;1.00
506;DHT22;551;48.524;9.056;2024-03-06T05:04:11;7.20;1.00
506;DHT22;551;48.524;9.056;2024-03-06T05:06:37;7.20;1.00
506;DHT22;551;48.524;9.056;2024-03-06T05:09:03;7.20;1.00
506;DHT22;551;48.524;9.056;2024-03-06T05:11:29;7.10;1.00
506;DHT22;551;48.524;9.056;2024-03-06T05:13:57;7.10;1.00
506;DHT22;551;48.524;9.056;2024-03-06T05:16:23;7.10;1.00
506;DHT22;551;48.524;9.056;2024-03-06T05:18:49;7.10;1.00
506;DHT22;551;48.524;9.056;2024-03-06T05:21:15;7.10;1.00
506;DHT22;551;48.524;9.056;2024-03-06T05:23:41;7.10;1.00
506;DHT22;551;48.524;9.056;2024-03-06T05:26:06;7.10;1.00
506;DHT22;551;48.524;9.056;2024-03-06T05:28:32;7.10;1.00
506;DHT22;551;48.524;9.056;2024-03-06T05:30:58;7.10;1.00
506;DHT22;551;48.524;9.056;2024-03-06T05:33:23;7.20;1.00
506;DHT22;551;48.524;9.056;2024-03-06T05:35:49;7.20;1.00
506;DHT22;551;48.524;9.056;2024-03-06T05:38:14;7.20;1.00
506;DHT22;551;48.524;9.056;2024-03-06T05:40:40;7.30;1.00
506;DHT22;551;48.524;9.056;2024-03-06T05:43:09;7.20;1.00
506;DHT22;551;48.524;9.056;2024-03-06T05:45:34;7.30;1.00
506;DHT22;551;48.524;9.056;2024-03-06T05:48:00;7.20;1.00
506;DHT22;551;48.524;9.056;2024-03-06T05:50:25;7.20;1.00
506;DHT22;551;48.524;9.056;2024-03-06T05:52:51;7.20;1.00
506;DHT22;551;48.524;9.056;2024-03-06T05:55:16;7.20;1.00
506;DHT22;551;48.524;9.056;2024-03-06T05:57:42;7.10;1.00
506;DHT22;551;48.524;9.056;2024-03-06T06:00:14;7.10;1.00
506;DHT22;551;48.524;9.056;2024-03-06T06:02:40;7.10;1.00
506;DHT22;551;48.524;9.056;2024-03-06T06:05:06;7.10;1.00
506;DHT22;551;48.524;9.056;2024-03-06T06:07:32;7.20;1.00
506;DHT22;551;48.524;9.056;2024-03-06T06:09:58;7.20;1.00
506;DHT22;551;48.524;9.056;2024-03-06T06:12:23;7.20;1.00
506;DHT22;551;48.524;9.056;2024-03-06T06:14:49;7.20;1.00
506;DHT22;551;48.524;9.056;2024-03-06T06:17:14;7.20;1.00
506;DHT22;551;48.524;9.056;2024-03-06T06:19:42;7.20;1.00
506;DHT22;551;48.524;9.056;2024-03-06T06:22:08;7.10;1.00
506;DHT22;551;48.524;9.056;2024-03-06T06:24:33;7.10;1.00
506;DHT22;551;48.524;9.056;2024-03-06T06:26:59;7.20;1.00
506;DHT22;551;48.524;9.056;2024-03-06T06:29:24;7.10;1.00
506;DHT22;551;48.524;9.056;2024-03-06T06:31:50;7.20;1.00
506;DHT22;551;48.524;9.056;2024-03-06T06:34:15;7.20;1.00
506;DHT22;551;48.524;9.056;2024-03-06T06:36:45;7.20;1.00
506;DHT22;551;48.524;9.056;2024-03-06T06:39:11;7.20;1.00
506;DHT22;551;48.524;9.056;2024-03-06T06:41:37;7.20;1.00
506;DHT22;551;48.524;9.056;2024-03-06T06:44:03;7.20;1.00
506;DHT22;551;48.524;9.056;2024-03-06T06:46:28;7.20;1.00
506;DHT22;551;48.524;9.056;2024-03-06T06:48:54;7.30;1.00
506;DHT22;551;48.524;9.056;2024-03-06T06:51:20;7.30;1.00
506;DHT22;551;48.524;9.056;2024-03-06T06:53:46;7.30;1.00
506;DHT22;551;48.524;9.056;2024-03-06T06:56:11;7.30;1.00
506;DHT22;551;48.524;9.056;2024-03-06T06:58:37;7.40;1.00
506;DHT22;551;48.524;9.056;2024-03-06T07:01:02;7.50;1.00
506;DHT22;551;48.524;9.056;2024-03-06T07:03:29;7.40;1.00
506;DHT22;551;48.524;9.056;2024-03-06T07:05:56;7.40;1.00
506;DHT22;551;48.524;9.056;2024-03-06T07:08:22;7.40;1.00
506;DHT22;551;48.524;9.056;2024-03-06T07:10:48;7.50;1.00
506;DHT22;551;48.524;9.056;2024-03-06T07:13:13;7.50;1.00
506;DHT22;551;48.524;9.056;2024-03-06T07:15:39;7.60;1.00
506;DHT22;551;48.524;9.056;2024-03-06T07:18:05;7.70;1.00
506;DHT22;551;48.524;9.056;2024-03-06T07:20:30;7.70;1.00
506;DHT22;551;48.524;9.056;2024-03-06T07:22:57;7.70;1.00
506;DHT22;551;48.524;9.056;2024-03-06T07:25:23;7.80;1.00
506;DHT22;551;48.524;9.056;2024-03-06T07:27:49;7.80;1.00
506;DHT22;551;48.524;9.056;2024-03-06T07:30:14;7.80;1.00
506;DHT22;551;48.524;9.056;2024-03-06T07:32:40;7.80;1.00
506;DHT22;551;48.524;9.056;2024-03-06T07:35:06;7.90;1.00
506;DHT22;551;48.524;9.056;2024-03-06T07:37:32;7.90;1.00
506;DHT22;551;48.524;9.056;2024-03-06T07:39:58;8.00;1.00
506;DHT22;551;48.524;9.056;2024-03-06T07:42:25;7.90;1.00
506;DHT22;551;48.524;9.056;2024-03-06T07:44:51;7.90;1.00
506;DHT22;551;48.524;9.056;2024-03-06T07:47:17;7.90;1.00
506;DHT22;551;48.524;9.056;2024-03-06T07:49:42;7.90;1.00
506;DHT22;551;48.524;9.056;2024-03-06T07:52:10;7.90;1.00
506;DHT22;551;48.524;9.056;2024-03-06T07:54:35;7.90;1.00
506;DHT22;551;48.524;9.056;2024-03-06T07:57:01;7.90;1.00
506;DHT22;551;48.524;9.056;2024-03-06T07:59:27;7.90;1.00
506;DHT22;551;48.524;9.056;2024-03-06T08:01:52;7.90;1.00
506;DHT22;551;48.524;9.056;2024-03-06T08:04:18;7.90;1.00
506;DHT22;551;48.524;9.056;2024-03-06T08:06:43;7.90;1.00
506;DHT22;551;48.524;9.056;2024-03-06T08:09:09;7.90;1.00
506;DHT22;551;48.524;9.056;2024-03-06T08:11:35;7.90;1.00
506;DHT22;551;48.524;9.056;2024-03-06T08:14:01;8.00;1.00
506;DHT22;551;48.524;9.056;2024-03-06T08:16:27;8.10;1.00
506;DHT22;551;48.524;9.056;2024-03-06T08:18:54;8.00;1.00
506;DHT22;551;48.524;9.056;2024-03-06T08:21:20;8.10;1.00
506;DHT22;551;48.524;9.056;2024-03-06T08:23:46;8.20;1.00
506;DHT22;551;48.524;9.056;2024-03-06T08:26:13;8.20;1.00
506;DHT22;551;48.524;9.056;2024-03-06T08:28:38;8.30;1.00
506;DHT22;551;48.524;9.056;2024-03-06T08:31:04;8.30;1.00
506;DHT22;551;48.524;9.056;2024-03-06T08:33:29;8.40;1.00
506;DHT22;551;48.524;9.056;2024-03-06T08:35:55;8.40;1.00
506;DHT22;551;48.524;9.056;2024-03-06T08:38:20;8.40;1.00
506;DHT22;551;48.524;9.056;2024-03-06T08:40:46;8.30;1.00
506;DHT22;551;48.524;9.056;2024-03-06T08:43:12;8.40;1.00
506;DHT22;551;48.524;9.056;2024-03-06T08:45:41;8.40;1.00
506;DHT22;551;48.524;9.056;2024-03-06T08:48:07;8.50;1.00
506;DHT22;551;48.524;9.056;2024-03-06T08:50:33;8.50;1.00
506;DHT22;551;48.524;9.056;2024-03-06T08:52:58;8.60;1.00
506;DHT22;551;48.524;9.056;2024-03-06T08:55:24;8.70;1.00
506;DHT22;551;48.524;9.056;2024-03-06T08:57:49;8.80;1.00
506;DHT22;551;48.524;9.056;2024-03-06T09:00:16;8.90;1.00
506;DHT22;551;48.524;9.056;2024-03-06T09:02:42;8.90;1.00
506;DHT22;551;48.524;9.056;2024-03-06T09:05:08;8.90;1.00
506;DHT22;551;48.524;9.056;2024-03-06T09:07:36;9.00;1.00
506;DHT22;551;48.524;9.056;2024-03-06T09:10:06;9.00;1.00
506;DHT22;551;48.524;9.056;2024-03-06T09:12:32;9.00;1.00
506;DHT22;551;48.524;9.056;2024-03-06T09:14:58;9.00;1.00
506;DHT22;551;48.524;9.056;2024-03-06T09:17:25;9.00;1.00
506;DHT22;551;48.524;9.056;2024-03-06T09:19:51;9.10;1.00
506;DHT22;551;48.524;9.056;2024-03-06T09:22:17;9.00;1.00
506;DHT22;551;48.524;9.056;2024-03-06T09:24:43;9.10;1.00
506;DHT22;551;48.524;9.056;2024-03-06T09:27:08;9.10;1.00
506;DHT22;551;48.524;9.056;2024-03-06T09:29:34;9.20;1.00
506;DHT22;551;48.524;9.056;2024-03-06T09:31:59;9.30;1.00
506;DHT22;551;48.524;9.056;2024-03-06T09:34:25;9.40;1.00
506;DHT22;551;48.524;9.056;2024-03-06T09:36:51;9.50;1.00
506;DHT22;551;48.524;9.056;2024-03-06T09:39:18;9.50;1.00
506;DHT22;551;48.524;9.056;2024-03-06T09:41:48;9.50;1.00
506;DHT22;551;48.524;9.056;2024-03-06T09:44:15;9.60;1.00
506;DHT22;551;48.524;9.056;2024-03-06T09:46:42;9.50;1.00
506;DHT22;551;48.524;9.056;2024-03-06T09:49:10;9.50;1.00
506;DHT22;551;48.524;9.056;2024-03-06T09:51:38;9.60;1.00
506;DHT22;551;48.524;9.056;2024-03-06T09:54:05;9.50;1.00
506;DHT22;551;48.524;9.056;2024-03-06T09:56:33;9.50;1.00
506;DHT22;551;48.524;9.056;2024-03-06T09:58:58;9.40;1.00
506;DHT22;551;48.524;9.056;2024-03-06T10:01:25;9.40;1.00
506;DHT22;551;48.524;9.056;2024-03-06T10:03:53;9.40;1.00
506;DHT22;551;48.524;9.056;2024-03-06T10:06:18;9.40;1.00
506;DHT22;551;48.524;9.056;2024-03-06T10:08:44;9.40;1.00
506;DHT22;551;48.524;9.056;2024-03-06T10:11:11;9.50;1.00
506;DHT22;551;48.524;9.056;2024-03-06T10:13:37;9.60;1.00
506;DHT22;551;48.524;9.056;2024-03-06T10:16:04;9.60;1.00
506;DHT22;551;48.524;9.056;2024-03-06T10:18:33;9.60;1.00
506;DHT22;551;48.524;9.056;2024-03-06T10:20:59;9.70;1.00
506;DHT22;551;48.524;9.056;2024-03-06T10:23:26;9.60;1.00
506;DHT22;551;48.524;9.056;2024-03-06T10:25:54;9.60;1.00
506;DHT22;551;48.524;9.056;2024-03-06T10:28:21;9.80;1.00
506;DHT22;551;48.524;9.056;2024-03-06T10:30:48;9.80;1.00
506;DHT22;551;48.524;9.056;2024-03-06T10:33:15;9.90;1.00
506;DHT22;551;48.524;9.056;2024-03-06T10:35:42;9.90;1.00
506;DHT22;551;48.524;9.056;2024-03-06T10:38:09;9.90;1.00
506;DHT22;551;48.524;9.056;2024-03-06T10:40:40;9.90;1.00
506;DHT22;551;48.524;9.056;2024-03-06T10:43:07;10.00;1.00
506;DHT22;551;48.524;9.056;2024-03-06T10:45:48;10.00;1.00
506;DHT22;551;48.524;9.056;2024-03-06T10:48:15;10.10;1.00
506;DHT22;551;48.524;9.056;2024-03-06T10:50:42;10.20;1.00
506;DHT22;551;48.524;9.056;2024-03-06T10:53:15;10.30;1.00
506;DHT22;551;48.524;9.056;2024-03-06T10:55:43;10.40;1.00
506;DHT22;551;48.524;9.056;2024-03-06T10:58:12;10.50;1.00
506;DHT22;551;48.524;9.056;2024-03-06T11:00:42;10.50;1.00
506;DHT22;551;48.524;9.056;2024-03-06T11:03:10;10.60;1.00
506;DHT22;551;48.524;9.056;2024-03-06T11:05:39;10.50;1.00
506;DHT22;551;48.524;9.056;2024-03-06T11:08:07;10.50;1.00
506;DHT22;551;48.524;9.056;2024-03-06T11:10:34;10.40;1.00
506;DHT22;551;48.524;9.056;2024-03-06T11:13:01;10.30;1.00
506;DHT22;551;48.524;9.056;2024-03-06T11:15:27;10.20;1.00
506;DHT22;551;48.524;9.056;2024-03-06T11:17:53;10.20;1.00
506;DHT22;551;48.524;9.056;2024-03-06T11:20:20;10.10;1.00
506;DHT22;551;48.524;9.056;2024-03-06T11:28:32;10.20;1.00
506;DHT22;551;48.524;9.056;2024-03-06T11:31:02;10.20;1.00
506;DHT22;551;48.524;9.056;2024-03-06T11:33:35;10.20;1.00
506;DHT22;551;48.524;9.056;2024-03-06T11:38:47;10.10;1.00
506;DHT22;551;48.524;9.056;2024-03-06T11:41:13;10.10;1.00
506;DHT22;551;48.524;9.056;2024-03-06T11:43:43;10.10;1.00
506;DHT22;551;48.524;9.056;2024-03-06T11:46:09;10.00;1.00
506;DHT22;551;48.524;9.056;2024-03-06T11:48:38;10.00;1.00
506;DHT22;551;48.524;9.056;2024-03-06T11:51:05;10.00;1.00
506;DHT22;551;48.524;9.056;2024-03-06T11:53:33;9.90;1.00
506;DHT22;551;48.524;9.056;2024-03-06T11:55:59;9.90;1.00
506;DHT22;551;48.524;9.056;2024-03-06T11:58:25;9.90;1.00
506;DHT22;551;48.524;9.056;2024-03-06T12:00:53;9.80;1.00
506;DHT22;551;48.524;9.056;2024-03-06T12:51:09;9.20;1.00
506;DHT22;551;48.524;9.056;2024-03-06T12:53:34;10.30;1.00
506;DHT22;551;48.524;9.056;2024-03-06T12:56:00;10.40;1.00
506;DHT22;551;48.524;9.056;2024-03-06T12:58:26;10.60;1.00
506;DHT22;551;48.524;9.056;2024-03-06T13:00:51;10.60;1.00
506;DHT22;551;48.524;9.056;2024-03-06T13:03:18;10.70;1.00
506;DHT22;551;48.524;9.056;2024-03-06T13:05:43;10.70;1.00
506;DHT22;551;48.524;9.056;2024-03-06T13:08:10;10.80;1.00
506;DHT22;551;48.524;9.056;2024-03-06T13:10:38;10.80;1.00
506;DHT22;551;48.524;9.056;2024-03-06T13:13:04;10.90;1.00
506;DHT22;551;48.524;9.056;2024-03-06T13:15:29;10.80;1.00
506;DHT22;551;48.524;9.056;2024-03-06T13:17:55;10.80;1.00
506;DHT22;551;48.524;9.056;2024-03-06T13:20:21;10.70;1.00
506;DHT22;551;48.524;9.056;2024-03-06T13:22:47;10.70;1.00
506;DHT22;551;48.524;9.056;2024-03-06T13:25:12;10.70;1.00
506;DHT22;551;48.524;9.056;2024-03-06T13:27:38;10.70;1.00
506;DHT22;551;48.524;9.056;2024-03-06T13:30:03;10.60;1.00
506;DHT22;551;48.524;9.056;2024-03-06T13:32:30;10.50;1.00
506;DHT22;551;48.524;9.056;2024-03-06T13:34:56;10.40;1.00
506;DHT22;551;48.524;9.056;2024-03-06T13:37:21;10.40;1.00
506;DHT22;551;48.524;9.056;2024-03-06T13:39:49;10.40;1.00
506;DHT22;551;48.524;9.056;2024-03-06T13:42:14;10.40;1.00
506;DHT22;551;48.524;9.056;2024-03-06T13:44:40;10.40;1.00
506;DHT22;551;48.524;9.056;2024-03-06T13:47:05;10.40;1.00
506;DHT22;551;48.524;9.056;2024-03-06T13:49:40;10.40;1.00
506;DHT22;551;48.524;9.056;2024-03-06T13:52:08;10.40;1.00
506;DHT22;551;48.524;9.056;2024-03-06T13:54:39;10.40;1.00
506;DHT22;551;48.524;9.056;2024-03-06T13:57:08;10.40;1.00
506;DHT22;551;48.524;9.056;2024-03-06T13:59:34;10.30;1.00
506;DHT22;551;48.524;9.056;2024-03-06T14:02:01;10.20;1.00
506;DHT22;551;48.524;9.056;2024-03-06T14:04:28;10.20;1.00
506;DHT22;551;48.524;9.056;2024-03-06T14:06:54;10.20;1.00
506;DHT22;551;48.524;9.056;2024-03-06T14:09:20;10.20;1.00
506;DHT22;551;48.524;9.056;2024-03-06T14:11:45;10.20;1.00
506;DHT22;551;48.524;9.056;2024-03-06T14:14:11;10.20;1.00
506;DHT22;551;48.524;9.056;2024-03-06T14:16:39;10.30;1.00
506;DHT22;551;48.524;9.056;2024-03-06T14:19:05;10.30;1.00
506;DHT22;551;48.524;9.056;2024-03-06T14:21:31;10.30;1.00
506;DHT22;551;48.524;9.056;2024-03-06T14:23:59;10.10;1.00
506;DHT22;551;48.524;9.056;2024-03-06T14:26:25;10.10;1.00
506;DHT22;551;48.524;9.056;2024-03-06T14:28:52;10.00;1.00
506;DHT22;551;48.524;9.056;2024-03-06T14:31:18;10.00;1.00
506;DHT22;551;48.524;9.056;2024-03-06T14:33:43;10.00;1.00
506;DHT22;551;48.524;9.056;2024-03-06T14:36:09;10.00;1.00
506;DHT22;551;48.524;9.056;2024-03-06T14:38:35;9.90;1.00
506;DHT22;551;48.524;9.056;2024-03-06T14:41:00;9.80;1.00
506;DHT22;551;48.524;9.056;2024-03-06T14:43:26;9.80;1.00
506;DHT22;551;48.524;9.056;2024-03-06T14:45:51;9.80;1.00
506;DHT22;551;48.524;9.056;2024-03-06T14:48:17;9.80;1.00
506;DHT22;551;48.524;9.056;2024-03-06T14:50:43;9.80;1.00
506;DHT22;551;48.524;9.056;2024-03-06T14:53:08;9.80;1.00
506;DHT22;551;48.524;9.056;2024-03-06T14:55:34;9.70;1.00
506;DHT22;551;48.524;9.056;2024-03-06T14:58:00;9.70;1.00
506;DHT22;551;48.524;9.056;2024-03-06T15:00:26;9.70;1.00
506;DHT22;551;48.524;9.056;2024-03-06T15:02:51;9.80;1.00
506;DHT22;551;48.524;9.056;2024-03-06T15:05:17;9.80;1.00
506;DHT22;551;48.524;9.056;2024-03-06T15:07:42;9.70;1.00
506;DHT22;551;48.524;9.056;2024-03-06T15:10:08;9.70;1.00
506;DHT22;551;48.524;9.056;2024-03-06T15:12:34;9.60;1.00
506;DHT22;551;48.524;9.056;2024-03-06T15:15:02;9.60;1.00
506;DHT22;551;48.524;9.056;2024-03-06T15:17:29;9.50;1.00
506;DHT22;551;48.524;9.056;2024-03-06T15:19:57;9.40;1.00
506;DHT22;551;48.524;9.056;2024-03-06T15:22:22;9.40;1.00
506;DHT22;551;48.524;9.056;2024-03-06T15:24:48;9.40;1.00
506;DHT22;551;48.524;9.056;2024-03-06T15:27:16;9.40;1.00
506;DHT22;551;48.524;9.056;2024-03-06T15:29:42;9.40;1.00
506;DHT22;551;48.524;9.056;2024-03-06T15:32:09;9.50;1.00
506;DHT22;551;48.524;9.056;2024-03-06T15:34:35;9.40;1.00
506;DHT22;551;48.524;9.056;2024-03-06T15:37:01;9.40;1.00
506;DHT22;551;48.524;9.056;2024-03-06T15:39:28;9.40;1.00
506;DHT22;551;48.524;9.056;2024-03-06T15:41:53;9.40;1.00
506;DHT22;551;48.524;9.056;2024-03-06T15:44:19;9.40;1.00
506;DHT22;551;48.524;9.056;2024-03-06T15:46:45;9.50;1.00
506;DHT22;551;48.524;9.056;2024-03-06T15:49:21;9.50;1.00
506;DHT22;551;48.524;9.056;2024-03-06T15:51:50;9.50;1.00
506;DHT22;551;48.524;9.056;2024-03-06T15:54:16;9.50;1.00
506;DHT22;551;48.524;9.056;2024-03-06T15:56:41;9.50;1.00
506;DHT22;551;48.524;9.056;2024-03-06T15:59:07;9.50;1.00
506;DHT22;551;48.524;9.056;2024-03-06T16:01:32;9.50;1.00
506;DHT22;551;48.524;9.056;2024-03-06T16:03:58;9.50;1.00
506;DHT22;551;48.524;9.056;2024-03-06T16:06:23;9.50;1.00
506;DHT22;551;48.524;9.056;2024-03-06T16:08:49;9.50;1.00
506;DHT22;551;48.524;9.056;2024-03-06T16:11:15;9.40;1.00
506;DHT22;551;48.524;9.056;2024-03-06T16:13:40;9.40;1.00
506;DHT22;551;48.524;9.056;2024-03-06T16:16:06;9.50;1.00
506;DHT22;551;48.524;9.056;2024-03-06T16:18:32;9.50;1.00
506;DHT22;551;48.524;9.056;2024-03-06T16:20:57;9.40;1.00
506;DHT22;551;48.524;9.056;2024-03-06T16:23:24;9.40;1.00
506;DHT22;551;48.524;9.056;2024-03-06T16:25:49;9.50;1.00
506;DHT22;551;48.524;9.056;2024-03-06T16:28:16;9.50;1.00
506;DHT22;551;48.524;9.056;2024-03-06T16:30:41;9.50;1.00
506;DHT22;551;48.524;9.056;2024-03-06T16:33:07;9.60;1.00
506;DHT22;551;48.524;9.056;2024-03-06T16:35:32;9.60;1.00
506;DHT22;551;48.524;9.056;2024-03-06T16:37:58;9.50;1.00
506;DHT22;551;48.524;9.056;2024-03-06T16:40:23;9.40;1.00
506;DHT22;551;48.524;9.056;2024-03-06T16:42:49;9.40;1.00
506;DHT22;551;48.524;9.056;2024-03-06T16:45:15;9.50;1.00
506;DHT22;551;48.524;9.056;2024-03-06T16:47:40;9.50;1.00
506;DHT22;551;48.524;9.056;2024-03-06T16:50:06;9.50;1.00
506;DHT22;551;48.524;9.056;2024-03-06T16:52:33;9.50;1.00
506;DHT22;551;48.524;9.056;2024-03-06T16:54:58;9.50;1.00
506;DHT22;551;48.524;9.056;2024-03-06T16:57:24;9.40;1.00
506;DHT22;551;48.524;9.056;2024-03-06T16:59:49;9.40;1.00
506;DHT22;551;48.524;9.056;2024-03-06T17:02:18;9.50;1.00
506;DHT22;551;48.524;9.056;2024-03-06T17:04:43;9.40;1.00
506;DHT22;551;48.524;9.056;2024-03-06T17:07:09;9.40;1.00
506;DHT22;551;48.524;9.056;2024-03-06T17:09:38;9.40;1.00
506;DHT22;551;48.524;9.056;2024-03-06T17:12:04;9.40;1.00
506;DHT22;551;48.524;9.056;2024-03-06T17:14:30;9.40;1.00
506;DHT22;551;48.524;9.056;2024-03-06T17:16:56;9.50;1.00
506;DHT22;551;48.524;9.056;2024-03-06T17:19:22;9.40;1.00
506;DHT22;551;48.524;9.056;2024-03-06T17:21:47;9.40;1.00
506;DHT22;551;48.524;9.056;2024-03-06T17:24:13;9.40;1.00
506;DHT22;551;48.524;9.056;2024-03-06T17:26:38;9.30;1.00
506;DHT22;551;48.524;9.056;2024-03-06T17:29:05;9.30;1.00
506;DHT22;551;48.524;9.056;2024-03-06T17:31:32;9.30;1.00
506;DHT22;551;48.524;9.056;2024-03-06T17:34:03;9.30;1.00
506;DHT22;551;48.524;9.056;2024-03-06T17:36:29;9.30;1.00
506;DHT22;551;48.524;9.056;2024-03-06T17:38:55;9.30;1.00
506;DHT22;551;48.524;9.056;2024-03-06T17:41:23;9.20;1.00
506;DHT22;551;48.524;9.056;2024-03-06T17:43:49;9.20;1.00
506;DHT22;551;48.524;9.056;2024-03-06T17:46:14;9.20;1.00
506;DHT22;551;48.524;9.056;2024-03-06T17:48:40;9.20;1.00
506;DHT22;551;48.524;9.056;2024-03-06T17:51:05;9.20;1.00
506;DHT22;551;48.524;9.056;2024-03-06T17:53:31;9.20;1.00
506;DHT22;551;48.524;9.056;2024-03-06T17:55:57;9.20;1.00